sensor_id;sensor_type;location;lat;lon;timestamp;pressure;altitude;pressure_sealevel;temperature;humidity
17060;BME280;8646;49.716;9.266;2023-03-31T00:02:16;99575.44;;;12.17;78.11
17060;BME280;8646;49.716;9.266;2023-03-31T00:05:27;99561.59;;;12.21;77.96
17060;BME280;8646;49.716;9.266;2023-03-31T00:08:31;99556.09;;;12.23;78.32
17060;BME280;8646;49.716;9.266;2023-03-31T00:11:50;99554.91;;;12.27;78.18
17060;BME280;8646;49.716;9.266;2023-03-31T00:14:53;99547.47;;;12.31;77.80
17060;BME280;8646;49.716;9.266;2023-03-31T00:18:01;99536.31;;;12.21;77.42
17060;BME280;8646;49.716;9.266;2023-03-31T00:21:10;99528.28;;;12.19;77.95
17060;BME280;8646;49.716;9.266;2023-03-31T00:24:21;99524.09;;;12.00;77.74
17060;BME280;8646;49.716;9.266;2023-03-31T00:27:23;99519.31;;;11.89;77.87
17060;BME280;8646;49.716;9.266;2023-03-31T00:30:28;99518.03;;;11.80;78.18
17060;BME280;8646;49.716;9.266;2023-03-31T00:33:31;99504.03;;;11.72;78.57
17060;BME280;8646;49.716;9.266;2023-03-31T00:36:45;99505.28;;;11.67;78.95
17060;BME280;8646;49.716;9.266;2023-03-31T00:39:51;99509.03;;;11.64;79.36
17060;BME280;8646;49.716;9.266;2023-03-31T00:42:54;99496.28;;;11.66;79.56
17060;BME280;8646;49.716;9.266;2023-03-31T00:46:20;99489.91;;;11.67;79.29
17060;BME280;8646;49.716;9.266;2023-03-31T00:49:31;99489.03;;;11.67;79.03
17060;BME280;8646;49.716;9.266;2023-03-31T00:52:35;99475.56;;;11.65;79.36
17060;BME280;8646;49.716;9.266;2023-03-31T00:55:55;99469.19;;;11.66;79.38
17060;BME280;8646;49.716;9.266;2023-03-31T00:59:02;99473.34;;;11.72;79.50
17060;BME280;8646;49.716;9.266;2023-03-31T01:02:11;99453.59;;;11.70;79.73
17060;BME280;8646;49.716;9.266;2023-03-31T01:05:16;99459.53;;;11.76;79.58
17060;BME280;8646;49.716;9.266;2023-03-31T01:08:24;99460.72;;;11.87;79.78
17060;BME280;8646;49.716;9.266;2023-03-31T01:11:29;99452.41;;;11.90;79.66
17060;BME280;8646;49.716;9.266;2023-03-31T01:14:33;99452.41;;;11.90;79.66
17060;BME280;8646;49.716;9.266;2023-03-31T01:17:38;99442.53;;;11.89;79.65
17060;BME280;8646;49.716;9.266;2023-03-31T01:24:53;99435.44;;;11.86;79.59
17060;BME280;8646;49.716;9.266;2023-03-31T01:28:09;99436.94;;;11.92;79.73
17060;BME280;8646;49.716;9.266;2023-03-31T01:35:45;99419.78;;;12.05;79.48
17060;BME280;8646;49.716;9.266;2023-03-31T01:39:18;99413.97;;;12.11;79.56
17060;BME280;8646;49.716;9.266;2023-03-31T01:42:33;99403.03;;;12.13;79.42
17060;BME280;8646;49.716;9.266;2023-03-31T01:45:48;99400.13;;;12.16;79.41
17060;BME280;8646;49.716;9.266;2023-03-31T01:49:01;99395.38;;;12.19;79.39
17060;BME280;8646;49.716;9.266;2023-03-31T01:52:12;99393.22;;;12.24;79.13
17060;BME280;8646;49.716;9.266;2023-03-31T01:55:23;99380.44;;;12.27;79.12
17060;BME280;8646;49.716;9.266;2023-03-31T01:58:35;99383.75;;;12.32;79.11
17060;BME280;8646;49.716;9.266;2023-03-31T02:01:48;99363.88;;;12.31;78.69
17060;BME280;8646;49.716;9.266;2023-03-31T02:04:55;99364.53;;;12.35;78.50
17060;BME280;8646;49.716;9.266;2023-03-31T02:08:19;99355.53;;;12.34;78.35
17060;BME280;8646;49.716;9.266;2023-03-31T02:11:27;99347.28;;;12.36;78.60
17060;BME280;8646;49.716;9.266;2023-03-31T02:14:44;99340.03;;;12.36;78.11
17060;BME280;8646;49.716;9.266;2023-03-31T02:17:50;99334.50;;;12.38;77.99
17060;BME280;8646;49.716;9.266;2023-03-31T02:21:01;99335.47;;;12.37;78.06
17060;BME280;8646;49.716;9.266;2023-03-31T02:24:10;99331.13;;;12.34;77.82
17060;BME280;8646;49.716;9.266;2023-03-31T02:27:30;99335.09;;;12.29;78.29
17060;BME280;8646;49.716;9.266;2023-03-31T02:30:43;99327.06;;;12.27;78.03
17060;BME280;8646;49.716;9.266;2023-03-31T02:33:59;99326.19;;;12.27;78.14
17060;BME280;8646;49.716;9.266;2023-03-31T02:37:06;99318.84;;;12.29;78.40
17060;BME280;8646;49.716;9.266;2023-03-31T02:40:11;99307.78;;;12.32;78.21
17060;BME280;8646;49.716;9.266;2023-03-31T02:43:17;99311.38;;;12.32;78.30
17060;BME280;8646;49.716;9.266;2023-03-31T02:46:28;99306.50;;;12.37;78.63
17060;BME280;8646;49.716;9.266;2023-03-31T02:49:33;99297.09;;;12.43;78.55
17060;BME280;8646;49.716;9.266;2023-03-31T02:53:00;99295.81;;;12.48;78.75
17060;BME280;8646;49.716;9.266;2023-03-31T02:56:17;99298.53;;;12.48;79.09
17060;BME280;8646;49.716;9.266;2023-03-31T02:59:40;99295.81;;;12.48;79.09
17060;BME280;8646;49.716;9.266;2023-03-31T03:03:00;99301.13;;;12.50;79.11
17060;BME280;8646;49.716;9.266;2023-03-31T03:06:18;99282.91;;;12.52;79.03
17060;BME280;8646;49.716;9.266;2023-03-31T03:09:42;99276.59;;;12.51;79.39
17060;BME280;8646;49.716;9.266;2023-03-31T03:12:54;99267.69;;;12.49;79.84
17060;BME280;8646;49.716;9.266;2023-03-31T03:16:02;99266.72;;;12.50;80.14
17060;BME280;8646;49.716;9.266;2023-03-31T03:19:21;99250.53;;;12.49;79.99
17060;BME280;8646;49.716;9.266;2023-03-31T03:22:24;99247.97;;;12.47;80.22
17060;BME280;8646;49.716;9.266;2023-03-31T03:25:27;99247.81;;;12.49;80.29
17060;BME280;8646;49.716;9.266;2023-03-31T03:28:31;99236.31;;;12.45;80.93
17060;BME280;8646;49.716;9.266;2023-03-31T03:31:36;99228.38;;;12.42;81.08
17060;BME280;8646;49.716;9.266;2023-03-31T03:34:40;99213.31;;;12.38;81.73
17060;BME280;8646;49.716;9.266;2023-03-31T03:37:49;99213.41;;;12.37;82.18
17060;BME280;8646;49.716;9.266;2023-03-31T03:40:53;99196.56;;;12.32;82.77
17060;BME280;8646;49.716;9.266;2023-03-31T03:44:01;99194.06;;;12.29;82.43
17060;BME280;8646;49.716;9.266;2023-03-31T03:47:09;99182.34;;;12.28;82.80
17060;BME280;8646;49.716;9.266;2023-03-31T03:50:13;99176.03;;;12.28;82.66
17060;BME280;8646;49.716;9.266;2023-03-31T03:53:17;99170.63;;;12.28;82.80
17060;BME280;8646;49.716;9.266;2023-03-31T03:56:19;99168.00;;;12.26;82.86
17060;BME280;8646;49.716;9.266;2023-03-31T03:59:25;99168.97;;;12.25;83.23
17060;BME280;8646;49.716;9.266;2023-03-31T04:02:27;99161.50;;;12.29;83.03
17060;BME280;8646;49.716;9.266;2023-03-31T04:05:41;99149.78;;;12.28;83.84
17060;BME280;8646;49.716;9.266;2023-03-31T04:08:44;99150.22;;;12.22;85.00
17060;BME280;8646;49.716;9.266;2023-03-31T04:11:53;99150.41;;;12.19;86.06
17060;BME280;8646;49.716;9.266;2023-03-31T04:14:56;99147.75;;;12.05;86.40
17060;BME280;8646;49.716;9.266;2023-03-31T04:17:59;99124.13;;;12.07;87.22
17060;BME280;8646;49.716;9.266;2023-03-31T04:21:03;99115.66;;;11.99;87.81
17060;BME280;8646;49.716;9.266;2023-03-31T04:24:07;99116.72;;;11.96;88.24
17060;BME280;8646;49.716;9.266;2023-03-31T04:27:15;99118.09;;;11.89;89.29
17060;BME280;8646;49.716;9.266;2023-03-31T04:30:22;99122.38;;;11.79;90.04
17060;BME280;8646;49.716;9.266;2023-03-31T04:33:25;99110.50;;;11.67;89.80
17060;BME280;8646;49.716;9.266;2023-03-31T04:36:44;99106.94;;;11.67;89.49
17060;BME280;8646;49.716;9.266;2023-03-31T04:39:48;99103.91;;;11.71;89.05
17060;BME280;8646;49.716;9.266;2023-03-31T04:42:58;99101.03;;;11.74;88.97
17060;BME280;8646;49.716;9.266;2023-03-31T04:46:01;99100.22;;;11.72;89.44
17060;BME280;8646;49.716;9.266;2023-03-31T04:49:10;99098.56;;;11.70;88.78
17060;BME280;8646;49.716;9.266;2023-03-31T04:52:15;99081.94;;;11.76;89.22
17060;BME280;8646;49.716;9.266;2023-03-31T04:55:27;99065.47;;;11.79;88.99
17060;BME280;8646;49.716;9.266;2023-03-31T04:58:55;99066.53;;;11.76;89.23
17060;BME280;8646;49.716;9.266;2023-03-31T05:01:58;99051.63;;;11.69;89.67
17060;BME280;8646;49.716;9.266;2023-03-31T05:05:01;99054.34;;;11.69;89.63
17060;BME280;8646;49.716;9.266;2023-03-31T05:08:05;99025.94;;;11.62;89.66
17060;BME280;8646;49.716;9.266;2023-03-31T05:11:08;99025.75;;;11.65;89.57
17060;BME280;8646;49.716;9.266;2023-03-31T05:14:11;99038.09;;;11.69;89.27
17060;BME280;8646;49.716;9.266;2023-03-31T05:17:14;99050.47;;;11.73;88.86
17060;BME280;8646;49.716;9.266;2023-03-31T05:20:18;99042.91;;;11.78;88.78
17060;BME280;8646;49.716;9.266;2023-03-31T05:23:23;99033.63;;;11.82;88.52
17060;BME280;8646;49.716;9.266;2023-03-31T05:26:26;99035.13;;;11.87;88.00
17060;BME280;8646;49.716;9.266;2023-03-31T05:29:28;99034.16;;;11.88;87.66
17060;BME280;8646;49.716;9.266;2023-03-31T05:32:31;99035.03;;;11.88;87.89
17060;BME280;8646;49.716;9.266;2023-03-31T05:35:34;99013.25;;;11.90;87.57
17060;BME280;8646;49.716;9.266;2023-03-31T05:38:39;99010.56;;;11.90;87.11
17060;BME280;8646;49.716;9.266;2023-03-31T05:41:41;99015.44;;;11.97;87.03
17060;BME280;8646;49.716;9.266;2023-03-31T05:44:44;99018.06;;;11.99;86.97
17060;BME280;8646;49.716;9.266;2023-03-31T05:47:47;99023.34;;;12.00;86.62
17060;BME280;8646;49.716;9.266;2023-03-31T05:51:02;99021.50;;;12.01;86.40
17060;BME280;8646;49.716;9.266;2023-03-31T05:54:06;99015.88;;;12.04;86.66
17060;BME280;8646;49.716;9.266;2023-03-31T05:57:09;99015.88;;;12.04;86.57
17060;BME280;8646;49.716;9.266;2023-03-31T06:00:14;99008.63;;;12.04;86.65
17060;BME280;8646;49.716;9.266;2023-03-31T06:03:21;99021.31;;;12.04;86.44
17060;BME280;8646;49.716;9.266;2023-03-31T06:06:37;99015.00;;;12.03;86.51
17060;BME280;8646;49.716;9.266;2023-03-31T06:09:42;98999.81;;;12.01;86.59
17060;BME280;8646;49.716;9.266;2023-03-31T06:12:47;98994.38;;;12.01;86.87
17060;BME280;8646;49.716;9.266;2023-03-31T06:15:53;98975.53;;;11.99;86.51
17060;BME280;8646;49.716;9.266;2023-03-31T06:18:56;98963.41;;;12.05;86.46
17060;BME280;8646;49.716;9.266;2023-03-31T06:22:01;98965.91;;;12.08;86.52
17060;BME280;8646;49.716;9.266;2023-03-31T06:25:06;98948.88;;;12.06;86.68
17060;BME280;8646;49.716;9.266;2023-03-31T06:28:09;98938.78;;;12.08;86.30
17060;BME280;8646;49.716;9.266;2023-03-31T06:31:14;98930.84;;;12.05;86.65
17060;BME280;8646;49.716;9.266;2023-03-31T06:34:20;98910.91;;;12.06;86.52
17060;BME280;8646;49.716;9.266;2023-03-31T06:37:23;98905.47;;;12.06;86.51
17060;BME280;8646;49.716;9.266;2023-03-31T06:40:29;98912.09;;;12.02;86.71
17060;BME280;8646;49.716;9.266;2023-03-31T06:43:32;98921.31;;;11.99;86.53
17060;BME280;8646;49.716;9.266;2023-03-31T06:46:38;98902.34;;;11.99;87.04
17060;BME280;8646;49.716;9.266;2023-03-31T06:49:40;98888.91;;;11.98;86.88
17060;BME280;8646;49.716;9.266;2023-03-31T06:52:46;98877.94;;;11.99;87.09
17060;BME280;8646;49.716;9.266;2023-03-31T06:56:02;98859.84;;;12.00;86.76
17060;BME280;8646;49.716;9.266;2023-03-31T06:59:24;98859.59;;;12.03;87.00
17060;BME280;8646;49.716;9.266;2023-03-31T07:02:26;98850.28;;;12.07;86.79
17060;BME280;8646;49.716;9.266;2023-03-31T07:05:30;98834.44;;;12.13;86.83
17060;BME280;8646;49.716;9.266;2023-03-31T07:08:33;98806.00;;;12.19;86.71
17060;BME280;8646;49.716;9.266;2023-03-31T07:11:44;98811.63;;;12.29;86.78
17060;BME280;8646;49.716;9.266;2023-03-31T07:14:54;98830.50;;;12.30;86.66
17060;BME280;8646;49.716;9.266;2023-03-31T07:17:57;98826.47;;;12.36;86.36
17060;BME280;8646;49.716;9.266;2023-03-31T07:21:03;98830.56;;;12.41;86.27
17060;BME280;8646;49.716;9.266;2023-03-31T07:24:10;98823.19;;;12.43;86.11
17060;BME280;8646;49.716;9.266;2023-03-31T07:27:16;98812.13;;;12.46;86.12
17060;BME280;8646;49.716;9.266;2023-03-31T07:30:22;98818.94;;;12.52;86.00
17060;BME280;8646;49.716;9.266;2023-03-31T07:33:27;98814.94;;;12.69;85.80
17060;BME280;8646;49.716;9.266;2023-03-31T07:36:38;98815.03;;;12.80;85.94
17060;BME280;8646;49.716;9.266;2023-03-31T07:39:45;98813.03;;;12.82;85.37
17060;BME280;8646;49.716;9.266;2023-03-31T07:42:49;98796.13;;;12.78;85.40
17060;BME280;8646;49.716;9.266;2023-03-31T07:45:52;98785.91;;;12.82;85.43
17060;BME280;8646;49.716;9.266;2023-03-31T07:48:55;98773.94;;;12.84;85.53
17060;BME280;8646;49.716;9.266;2023-03-31T07:51:59;98786.06;;;12.91;85.52
17060;BME280;8646;49.716;9.266;2023-03-31T07:55:11;98775.78;;;12.84;85.36
17060;BME280;8646;49.716;9.266;2023-03-31T07:58:25;98789.66;;;12.92;85.47
17060;BME280;8646;49.716;9.266;2023-03-31T08:01:28;98770.06;;;12.99;85.48
17060;BME280;8646;49.716;9.266;2023-03-31T08:04:31;98784.00;;;13.06;85.36
17060;BME280;8646;49.716;9.266;2023-03-31T08:07:38;98764.66;;;13.11;85.34
17060;BME280;8646;49.716;9.266;2023-03-31T08:10:44;98769.13;;;13.12;85.24
17060;BME280;8646;49.716;9.266;2023-03-31T08:13:53;98770.09;;;13.11;84.53
17060;BME280;8646;49.716;9.266;2023-03-31T08:16:56;98758.38;;;13.10;84.51
17060;BME280;8646;49.716;9.266;2023-03-31T08:20:01;98763.13;;;13.19;84.77
17060;BME280;8646;49.716;9.266;2023-03-31T08:23:09;98777.63;;;13.42;84.52
17060;BME280;8646;49.716;9.266;2023-03-31T08:26:19;98766.03;;;13.51;83.95
17060;BME280;8646;49.716;9.266;2023-03-31T08:29:25;98772.59;;;13.60;83.74
17060;BME280;8646;49.716;9.266;2023-03-31T08:32:37;98785.03;;;13.62;83.23
17060;BME280;8646;49.716;9.266;2023-03-31T08:36:13;98778.03;;;13.60;82.96
17060;BME280;8646;49.716;9.266;2023-03-31T08:39:16;98767.75;;;13.52;83.12
17060;BME280;8646;49.716;9.266;2023-03-31T08:42:42;98758.84;;;13.50;83.28
17060;BME280;8646;49.716;9.266;2023-03-31T08:45:50;98779.47;;;13.42;83.42
17060;BME280;8646;49.716;9.266;2023-03-31T08:48:55;98787.84;;;13.38;83.56
17060;BME280;8646;49.716;9.266;2023-03-31T08:52:01;98785.13;;;13.27;83.07
17060;BME280;8646;49.716;9.266;2023-03-31T08:55:09;98790.19;;;13.32;82.88
17060;BME280;8646;49.716;9.266;2023-03-31T08:58:33;98771.47;;;13.62;82.17
17060;BME280;8646;49.716;9.266;2023-03-31T09:01:45;98783.44;;;13.71;82.11
17060;BME280;8646;49.716;9.266;2023-03-31T09:08:58;98813.63;;;13.79;81.84
17060;BME280;8646;49.716;9.266;2023-03-31T09:12:32;98775.81;;;13.98;81.26
17060;BME280;8646;49.716;9.266;2023-03-31T09:15:49;98775.78;;;14.32;80.88
17060;BME280;8646;49.716;9.266;2023-03-31T09:18:59;98765.59;;;14.67;80.01
17060;BME280;8646;49.716;9.266;2023-03-31T09:22:03;98765.84;;;15.17;79.19
17060;BME280;8646;49.716;9.266;2023-03-31T09:25:11;98745.59;;;15.51;77.79
17060;BME280;8646;49.716;9.266;2023-03-31T09:28:19;98743.78;;;15.82;77.09
17060;BME280;8646;49.716;9.266;2023-03-31T09:31:26;98743.63;;;15.84;76.78
17060;BME280;8646;49.716;9.266;2023-03-31T09:34:32;98749.19;;;15.73;76.09
17060;BME280;8646;49.716;9.266;2023-03-31T09:37:46;98755.50;;;15.52;75.93
17060;BME280;8646;49.716;9.266;2023-03-31T09:40:49;98755.06;;;15.47;75.82
17060;BME280;8646;49.716;9.266;2023-03-31T09:43:52;98762.75;;;15.42;75.54
17060;BME280;8646;49.716;9.266;2023-03-31T09:46:55;98750.97;;;15.42;75.45
17060;BME280;8646;49.716;9.266;2023-03-31T09:50:06;98767.63;;;15.39;75.18
17060;BME280;8646;49.716;9.266;2023-03-31T09:53:19;98795.81;;;15.17;75.42
17060;BME280;8646;49.716;9.266;2023-03-31T09:56:45;98793.09;;;14.85;73.93
17060;BME280;8646;49.716;9.266;2023-03-31T09:59:50;98809.44;;;14.42;73.61
17060;BME280;8646;49.716;9.266;2023-03-31T10:02:53;98841.94;;;13.99;73.23
17060;BME280;8646;49.716;9.266;2023-03-31T10:05:58;98830.66;;;13.59;73.15
17060;BME280;8646;49.716;9.266;2023-03-31T10:09:09;98821.81;;;13.09;74.85
17060;BME280;8646;49.716;9.266;2023-03-31T10:12:15;98857.81;;;12.76;75.37
17060;BME280;8646;49.716;9.266;2023-03-31T10:15:24;98859.63;;;12.52;76.48
17060;BME280;8646;49.716;9.266;2023-03-31T10:18:32;98882.81;;;12.32;77.32
17060;BME280;8646;49.716;9.266;2023-03-31T10:21:45;98881.59;;;12.11;78.43
17060;BME280;8646;49.716;9.266;2023-03-31T10:24:49;98862.31;;;12.03;78.41
17060;BME280;8646;49.716;9.266;2023-03-31T10:27:54;98861.78;;;11.85;79.25
17060;BME280;8646;49.716;9.266;2023-03-31T10:30:59;98821.56;;;11.79;79.38
17060;BME280;8646;49.716;9.266;2023-03-31T10:34:05;98796.06;;;11.69;80.18
17060;BME280;8646;49.716;9.266;2023-03-31T10:37:15;98702.25;;;11.42;79.90
17060;BME280;8646;49.716;9.266;2023-03-31T10:40:22;98725.41;;;11.84;79.15
17060;BME280;8646;49.716;9.266;2023-03-31T10:43:36;98743.50;;;11.97;79.19
17060;BME280;8646;49.716;9.266;2023-03-31T10:46:42;98745.81;;;12.14;78.70
17060;BME280;8646;49.716;9.266;2023-03-31T10:49:56;98737.31;;;12.31;78.03
17060;BME280;8646;49.716;9.266;2023-03-31T10:53:05;98713.19;;;12.39;77.55
17060;BME280;8646;49.716;9.266;2023-03-31T10:56:16;98705.94;;;12.51;77.20
17060;BME280;8646;49.716;9.266;2023-03-31T10:59:35;98709.13;;;12.69;76.83
17060;BME280;8646;49.716;9.266;2023-03-31T11:03:08;98683.53;;;13.06;76.44
17060;BME280;8646;49.716;9.266;2023-03-31T11:06:35;98692.06;;;13.70;75.69
17060;BME280;8646;49.716;9.266;2023-03-31T11:09:54;98680.56;;;14.32;75.04
17060;BME280;8646;49.716;9.266;2023-03-31T11:13:06;98686.56;;;14.78;74.14
17060;BME280;8646;49.716;9.266;2023-03-31T11:16:17;98692.09;;;15.09;73.27
17060;BME280;8646;49.716;9.266;2023-03-31T11:19:33;98701.28;;;15.28;72.32
17060;BME280;8646;49.716;9.266;2023-03-31T11:22:43;98687.59;;;15.40;71.56
17060;BME280;8646;49.716;9.266;2023-03-31T11:25:56;98680.91;;;15.33;71.27
17060;BME280;8646;49.716;9.266;2023-03-31T11:29:07;98678.09;;;15.13;71.58
17060;BME280;8646;49.716;9.266;2023-03-31T11:32:50;98706.78;;;14.97;72.00
17060;BME280;8646;49.716;9.266;2023-03-31T11:36:08;98711.13;;;14.99;72.41
17060;BME280;8646;49.716;9.266;2023-03-31T11:39:24;98706.47;;;14.90;72.08
17060;BME280;8646;49.716;9.266;2023-03-31T11:42:37;98708.03;;;14.72;72.41
17060;BME280;8646;49.716;9.266;2023-03-31T11:45:48;98704.84;;;14.67;72.91
17060;BME280;8646;49.716;9.266;2023-03-31T11:48:59;98688.09;;;14.71;72.26
17060;BME280;8646;49.716;9.266;2023-03-31T11:52:07;98703.78;;;14.79;72.28
17060;BME280;8646;49.716;9.266;2023-03-31T11:55:14;98689.63;;;14.85;70.11
17060;BME280;8646;49.716;9.266;2023-03-31T11:58:23;98688.56;;;14.76;69.99
17060;BME280;8646;49.716;9.266;2023-03-31T12:01:34;98703.63;;;14.92;69.51
17060;BME280;8646;49.716;9.266;2023-03-31T12:04:41;98659.56;;;15.07;69.13
17060;BME280;8646;49.716;9.266;2023-03-31T12:07:49;98658.91;;;15.15;68.49
17060;BME280;8646;49.716;9.266;2023-03-31T12:10:58;98654.50;;;15.23;68.54
17060;BME280;8646;49.716;9.266;2023-03-31T12:14:12;98647.78;;;15.27;68.21
17060;BME280;8646;49.716;9.266;2023-03-31T12:17:19;98651.09;;;15.31;68.29
17060;BME280;8646;49.716;9.266;2023-03-31T12:20:28;98646.66;;;15.60;67.91
17060;BME280;8646;49.716;9.266;2023-03-31T12:23:35;98640.72;;;15.86;67.44
17060;BME280;8646;49.716;9.266;2023-03-31T12:26:49;98607.63;;;16.10;66.57
17060;BME280;8646;49.716;9.266;2023-03-31T12:29:57;98603.75;;;16.31;66.48
17060;BME280;8646;49.716;9.266;2023-03-31T12:33:08;98607.50;;;16.50;65.99
17060;BME280;8646;49.716;9.266;2023-03-31T12:36:26;98600.03;;;16.71;65.75
17060;BME280;8646;49.716;9.266;2023-03-31T12:39:41;98594.56;;;16.81;64.92
17060;BME280;8646;49.716;9.266;2023-03-31T12:43:06;98597.69;;;16.95;64.79
17060;BME280;8646;49.716;9.266;2023-03-31T12:46:25;98601.16;;;16.88;64.69
17060;BME280;8646;49.716;9.266;2023-03-31T12:49:42;98606.78;;;16.57;65.74
17060;BME280;8646;49.716;9.266;2023-03-31T12:52:55;98600.31;;;16.29;66.43
17060;BME280;8646;49.716;9.266;2023-03-31T12:56:02;98589.09;;;16.13;67.05
17060;BME280;8646;49.716;9.266;2023-03-31T12:59:29;98584.22;;;16.17;66.82
17060;BME280;8646;49.716;9.266;2023-03-31T13:02:34;98566.41;;;16.32;66.53
17060;BME280;8646;49.716;9.266;2023-03-31T13:05:45;98564.41;;;16.44;65.06
17060;BME280;8646;49.716;9.266;2023-03-31T13:08:54;98570.13;;;16.60;64.52
17060;BME280;8646;49.716;9.266;2023-03-31T13:11:57;98564.13;;;16.66;64.03
17060;BME280;8646;49.716;9.266;2023-03-31T13:15:32;98554.59;;;16.79;63.77
17060;BME280;8646;49.716;9.266;2023-03-31T13:18:36;98559.44;;;16.95;63.06
17060;BME280;8646;49.716;9.266;2023-03-31T13:21:54;98555.94;;;17.12;62.85
17060;BME280;8646;49.716;9.266;2023-03-31T13:28:44;98541.59;;;17.38;61.47
17060;BME280;8646;49.716;9.266;2023-03-31T13:32:26;98533.59;;;17.54;60.03
17060;BME280;8646;49.716;9.266;2023-03-31T13:35:33;98540.44;;;17.68;58.81
17060;BME280;8646;49.716;9.266;2023-03-31T13:38:49;98529.44;;;17.77;58.15
17060;BME280;8646;49.716;9.266;2023-03-31T13:42:02;98516.50;;;17.97;56.73
17060;BME280;8646;49.716;9.266;2023-03-31T13:45:37;98513.44;;;18.00;56.08
17060;BME280;8646;49.716;9.266;2023-03-31T13:48:53;98499.31;;;18.05;55.73
17060;BME280;8646;49.716;9.266;2023-03-31T13:52:10;98495.56;;;18.06;54.66
17060;BME280;8646;49.716;9.266;2023-03-31T13:55:48;98486.00;;;18.10;54.00
17060;BME280;8646;49.716;9.266;2023-03-31T13:59:09;98457.78;;;18.09;52.48
17060;BME280;8646;49.716;9.266;2023-03-31T14:02:42;98476.78;;;18.28;53.15
17060;BME280;8646;49.716;9.266;2023-03-31T14:05:52;98467.66;;;18.46;52.43
17060;BME280;8646;49.716;9.266;2023-03-31T14:09:01;98492.97;;;18.40;52.13
17060;BME280;8646;49.716;9.266;2023-03-31T14:12:18;98490.75;;;18.25;51.72
17060;BME280;8646;49.716;9.266;2023-03-31T14:15:23;98497.81;;;18.28;50.95
17060;BME280;8646;49.716;9.266;2023-03-31T14:18:31;98502.50;;;18.18;51.10
17060;BME280;8646;49.716;9.266;2023-03-31T14:21:39;98511.66;;;18.09;51.31
17060;BME280;8646;49.716;9.266;2023-03-31T14:24:50;98512.78;;;17.98;52.16
17060;BME280;8646;49.716;9.266;2023-03-31T14:28:04;98517.81;;;17.93;52.89
17060;BME280;8646;49.716;9.266;2023-03-31T14:31:17;98502.06;;;18.05;52.72
17060;BME280;8646;49.716;9.266;2023-03-31T14:34:43;98513.53;;;18.26;51.60
17060;BME280;8646;49.716;9.266;2023-03-31T14:37:48;98514.94;;;18.30;51.69
17060;BME280;8646;49.716;9.266;2023-03-31T14:40:53;98511.63;;;18.44;51.35
17060;BME280;8646;49.716;9.266;2023-03-31T14:44:00;98519.63;;;18.38;51.19
17060;BME280;8646;49.716;9.266;2023-03-31T14:47:13;98526.19;;;18.27;51.73
17060;BME280;8646;49.716;9.266;2023-03-31T14:50:17;98522.22;;;18.04;52.12
17060;BME280;8646;49.716;9.266;2023-03-31T14:53:23;98510.91;;;17.99;51.86
17060;BME280;8646;49.716;9.266;2023-03-31T14:56:32;98507.56;;;17.77;52.64
17060;BME280;8646;49.716;9.266;2023-03-31T14:59:37;98496.56;;;17.60;53.02
17060;BME280;8646;49.716;9.266;2023-03-31T15:02:42;98491.78;;;17.44;53.07
17060;BME280;8646;49.716;9.266;2023-03-31T15:05:46;98483.66;;;17.34;53.69
17060;BME280;8646;49.716;9.266;2023-03-31T15:08:54;98481.69;;;17.27;53.90
17060;BME280;8646;49.716;9.266;2023-03-31T15:12:03;98476.00;;;17.10;53.17
17060;BME280;8646;49.716;9.266;2023-03-31T15:15:09;98479.22;;;16.96;52.32
17060;BME280;8646;49.716;9.266;2023-03-31T15:18:19;98466.31;;;16.79;51.61
17060;BME280;8646;49.716;9.266;2023-03-31T15:21:24;98487.38;;;16.69;52.35
17060;BME280;8646;49.716;9.266;2023-03-31T15:24:27;98478.06;;;16.62;52.19
17060;BME280;8646;49.716;9.266;2023-03-31T15:27:36;98500.44;;;16.46;52.05
17060;BME280;8646;49.716;9.266;2023-03-31T15:30:40;98476.50;;;16.11;52.57
17060;BME280;8646;49.716;9.266;2023-03-31T15:33:45;98520.72;;;16.15;52.84
17060;BME280;8646;49.716;9.266;2023-03-31T15:36:49;98523.63;;;16.03;53.57
17060;BME280;8646;49.716;9.266;2023-03-31T15:39:54;98542.09;;;15.90;53.96
17060;BME280;8646;49.716;9.266;2023-03-31T15:43:07;98547.13;;;15.76;54.92
17060;BME280;8646;49.716;9.266;2023-03-31T15:46:24;98554.25;;;15.57;55.86
17060;BME280;8646;49.716;9.266;2023-03-31T15:49:28;98579.13;;;15.43;57.32
17060;BME280;8646;49.716;9.266;2023-03-31T15:52:34;98613.34;;;15.26;59.79
17060;BME280;8646;49.716;9.266;2023-03-31T15:55:39;98617.50;;;15.00;62.63
17060;BME280;8646;49.716;9.266;2023-03-31T15:59:03;98626.34;;;14.72;64.43
17060;BME280;8646;49.716;9.266;2023-03-31T16:02:11;98572.69;;;14.42;65.89
17060;BME280;8646;49.716;9.266;2023-03-31T16:05:26;98560.53;;;14.46;66.66
17060;BME280;8646;49.716;9.266;2023-03-31T16:08:41;98556.09;;;14.45;67.44
17060;BME280;8646;49.716;9.266;2023-03-31T16:11:47;98567.09;;;14.43;67.60
17060;BME280;8646;49.716;9.266;2023-03-31T16:15:02;98562.03;;;14.50;68.17
17060;BME280;8646;49.716;9.266;2023-03-31T16:18:08;98563.00;;;14.70;67.66
17060;BME280;8646;49.716;9.266;2023-03-31T16:21:27;98556.19;;;14.85;67.60
17060;BME280;8646;49.716;9.266;2023-03-31T16:24:33;98554.28;;;14.97;67.38
17060;BME280;8646;49.716;9.266;2023-03-31T16:27:39;98542.56;;;15.06;67.09
17060;BME280;8646;49.716;9.266;2023-03-31T16:30:53;98532.25;;;15.09;66.80
17060;BME280;8646;49.716;9.266;2023-03-31T16:34:07;98536.81;;;14.99;66.99
17060;BME280;8646;49.716;9.266;2023-03-31T16:37:11;98537.00;;;14.86;66.70
17060;BME280;8646;49.716;9.266;2023-03-31T16:40:17;98534.66;;;14.72;67.22
17060;BME280;8646;49.716;9.266;2023-03-31T16:43:23;98537.72;;;14.58;67.58
17060;BME280;8646;49.716;9.266;2023-03-31T16:46:34;98533.75;;;14.41;68.27
17060;BME280;8646;49.716;9.266;2023-03-31T16:49:37;98532.31;;;14.26;68.46
17060;BME280;8646;49.716;9.266;2023-03-31T16:52:43;98538.22;;;14.10;69.27
17060;BME280;8646;49.716;9.266;2023-03-31T16:55:45;98545.28;;;14.02;69.36
17060;BME280;8646;49.716;9.266;2023-03-31T16:58:48;98550.34;;;13.95;70.21
17060;BME280;8646;49.716;9.266;2023-03-31T17:01:55;98557.94;;;13.92;70.21
17060;BME280;8646;49.716;9.266;2023-03-31T17:04:58;98557.81;;;13.93;70.40
17060;BME280;8646;49.716;9.266;2023-03-31T17:08:14;98549.25;;;13.98;70.56
17060;BME280;8646;49.716;9.266;2023-03-31T17:11:17;98542.34;;;13.94;70.77
17060;BME280;8646;49.716;9.266;2023-03-31T17:14:19;98556.06;;;13.92;70.76